sensor_id;sensor_type;location;lat;lon;timestamp;P1;durP1;ratioP1;P2;durP2;ratioP2
15002;SDS011;7597;53.590;10.020;2023-02-28T00:01:12;3.03;;;2.13;;
15002;SDS011;7597;53.590;10.020;2023-02-28T00:03:39;3.43;;;2.40;;
15002;SDS011;7597;53.590;10.020;2023-02-28T00:06:06;6.90;;;2.07;;
15002;SDS011;7597;53.590;10.020;2023-02-28T00:08:32;3.43;;;2.10;;
15002;SDS011;7597;53.590;10.020;2023-02-28T00:11:01;4.33;;;2.40;;
15002;SDS011;7597;53.590;10.020;2023-02-28T00:13:27;2.47;;;2.00;;
15002;SDS011;7597;53.590;10.020;2023-02-28T00:15:59;6.13;;;2.10;;
15002;SDS011;7597;53.590;10.020;2023-02-28T00:18:25;3.70;;;2.27;;
15002;SDS011;7597;53.590;10.020;2023-02-28T00:20:51;4.50;;;2.03;;
15002;SDS011;7597;53.590;10.020;2023-02-28T00:23:18;4.87;;;2.20;;
15002;SDS011;7597;53.590;10.020;2023-02-28T00:25:45;5.77;;;2.40;;
15002;SDS011;7597;53.590;10.020;2023-02-28T00:28:11;4.07;;;2.40;;
15002;SDS011;7597;53.590;10.020;2023-02-28T00:30:38;4.97;;;2.43;;
15002;SDS011;7597;53.590;10.020;2023-02-28T00:33:05;4.20;;;2.43;;
15002;SDS011;7597;53.590;10.020;2023-02-28T00:35:32;3.97;;;2.10;;
15002;SDS011;7597;53.590;10.020;2023-02-28T00:37:59;3.20;;;2.50;;
15002;SDS011;7597;53.590;10.020;2023-02-28T00:40:25;5.83;;;3.07;;
15002;SDS011;7597;53.590;10.020;2023-02-28T00:42:52;4.30;;;2.43;;
15002;SDS011;7597;53.590;10.020;2023-02-28T00:45:19;6.07;;;2.70;;
15002;SDS011;7597;53.590;10.020;2023-02-28T00:47:45;4.30;;;2.37;;
15002;SDS011;7597;53.590;10.020;2023-02-28T00:50:12;6.10;;;2.43;;
15002;SDS011;7597;53.590;10.020;2023-02-28T00:52:39;6.40;;;2.93;;
15002;SDS011;7597;53.590;10.020;2023-02-28T00:55:05;5.17;;;2.50;;
15002;SDS011;7597;53.590;10.020;2023-02-28T00:57:32;5.20;;;2.33;;
15002;SDS011;7597;53.590;10.020;2023-02-28T00:59:59;4.37;;;2.57;;
15002;SDS011;7597;53.590;10.020;2023-02-28T01:02:26;4.13;;;2.23;;
15002;SDS011;7597;53.590;10.020;2023-02-28T01:04:52;3.80;;;2.20;;
15002;SDS011;7597;53.590;10.020;2023-02-28T01:07:19;4.47;;;2.10;;
15002;SDS011;7597;53.590;10.020;2023-02-28T01:09:46;4.03;;;2.13;;
15002;SDS011;7597;53.590;10.020;2023-02-28T01:12:12;5.63;;;2.67;;
15002;SDS011;7597;53.590;10.020;2023-02-28T01:14:39;3.83;;;2.27;;
15002;SDS011;7597;53.590;10.020;2023-02-28T01:17:06;4.03;;;2.30;;
15002;SDS011;7597;53.590;10.020;2023-02-28T01:19:32;4.93;;;2.63;;
15002;SDS011;7597;53.590;10.020;2023-02-28T01:22:00;3.90;;;2.47;;
15002;SDS011;7597;53.590;10.020;2023-02-28T01:24:26;5.23;;;2.43;;
15002;SDS011;7597;53.590;10.020;2023-02-28T01:26:53;4.50;;;2.80;;
15002;SDS011;7597;53.590;10.020;2023-02-28T01:29:20;4.20;;;2.50;;
15002;SDS011;7597;53.590;10.020;2023-02-28T01:31:47;3.60;;;2.30;;
15002;SDS011;7597;53.590;10.020;2023-02-28T01:34:14;5.00;;;2.23;;
15002;SDS011;7597;53.590;10.020;2023-02-28T01:36:40;3.93;;;2.43;;
15002;SDS011;7597;53.590;10.020;2023-02-28T01:39:07;4.00;;;2.33;;
15002;SDS011;7597;53.590;10.020;2023-02-28T01:41:34;5.30;;;2.57;;
15002;SDS011;7597;53.590;10.020;2023-02-28T01:44:05;8.00;;;2.43;;
15002;SDS011;7597;53.590;10.020;2023-02-28T01:46:46;4.10;;;2.20;;
15002;SDS011;7597;53.590;10.020;2023-02-28T01:49:13;3.97;;;2.17;;
15002;SDS011;7597;53.590;10.020;2023-02-28T01:51:42;9.47;;;3.10;;
15002;SDS011;7597;53.590;10.020;2023-02-28T01:54:10;4.63;;;2.17;;
15002;SDS011;7597;53.590;10.020;2023-02-28T01:56:36;3.23;;;2.40;;
15002;SDS011;7597;53.590;10.020;2023-02-28T01:59:03;4.40;;;2.50;;
15002;SDS011;7597;53.590;10.020;2023-02-28T02:01:29;6.17;;;2.30;;
15002;SDS011;7597;53.590;10.020;2023-02-28T02:03:57;3.70;;;2.10;;
15002;SDS011;7597;53.590;10.020;2023-02-28T02:06:40;3.43;;;2.30;;
15002;SDS011;7597;53.590;10.020;2023-02-28T02:09:04;3.43;;;2.40;;
15002;SDS011;7597;53.590;10.020;2023-02-28T02:11:31;4.40;;;2.20;;
15002;SDS011;7597;53.590;10.020;2023-02-28T02:14:32;3.53;;;2.60;;
15002;SDS011;7597;53.590;10.020;2023-02-28T02:17:02;7.13;;;2.43;;
15002;SDS011;7597;53.590;10.020;2023-02-28T02:19:50;5.33;;;2.27;;
15002;SDS011;7597;53.590;10.020;2023-02-28T02:22:21;3.73;;;2.50;;
15002;SDS011;7597;53.590;10.020;2023-02-28T02:24:58;3.53;;;2.23;;
15002;SDS011;7597;53.590;10.020;2023-02-28T02:27:39;3.43;;;2.53;;
15002;SDS011;7597;53.590;10.020;2023-02-28T02:30:14;6.20;;;2.70;;
15002;SDS011;7597;53.590;10.020;2023-02-28T02:33:15;4.87;;;2.60;;
15002;SDS011;7597;53.590;10.020;2023-02-28T02:35:47;4.00;;;2.40;;
15002;SDS011;7597;53.590;10.020;2023-02-28T02:38:11;4.23;;;3.03;;
15002;SDS011;7597;53.590;10.020;2023-02-28T02:40:43;4.57;;;2.67;;
15002;SDS011;7597;53.590;10.020;2023-02-28T02:43:16;5.70;;;2.77;;
15002;SDS011;7597;53.590;10.020;2023-02-28T02:45:45;5.40;;;2.80;;
15002;SDS011;7597;53.590;10.020;2023-02-28T02:48:16;4.80;;;2.73;;
15002;SDS011;7597;53.590;10.020;2023-02-28T02:50:43;6.00;;;2.93;;
15002;SDS011;7597;53.590;10.020;2023-02-28T02:53:10;4.17;;;2.70;;
15002;SDS011;7597;53.590;10.020;2023-02-28T02:55:41;5.13;;;3.30;;
15002;SDS011;7597;53.590;10.020;2023-02-28T02:58:04;4.60;;;2.87;;
15002;SDS011;7597;53.590;10.020;2023-02-28T03:00:32;5.40;;;3.00;;
15002;SDS011;7597;53.590;10.020;2023-02-28T03:02:57;4.70;;;3.00;;
15002;SDS011;7597;53.590;10.020;2023-02-28T03:05:26;4.50;;;2.70;;
15002;SDS011;7597;53.590;10.020;2023-02-28T03:07:51;4.40;;;2.80;;
15002;SDS011;7597;53.590;10.020;2023-02-28T03:12:59;5.63;;;3.03;;
15002;SDS011;7597;53.590;10.020;2023-02-28T03:15:26;6.80;;;3.07;;
15002;SDS011;7597;53.590;10.020;2023-02-28T03:17:55;6.13;;;3.40;;
15002;SDS011;7597;53.590;10.020;2023-02-28T03:20:30;5.43;;;3.43;;
15002;SDS011;7597;53.590;10.020;2023-02-28T03:23:00;6.97;;;3.30;;
15002;SDS011;7597;53.590;10.020;2023-02-28T03:25:34;5.30;;;3.10;;
15002;SDS011;7597;53.590;10.020;2023-02-28T03:28:00;7.27;;;3.87;;
15002;SDS011;7597;53.590;10.020;2023-02-28T03:30:31;6.27;;;3.27;;
15002;SDS011;7597;53.590;10.020;2023-02-28T03:32:56;5.43;;;3.17;;
15002;SDS011;7597;53.590;10.020;2023-02-28T03:35:25;8.47;;;3.37;;
15002;SDS011;7597;53.590;10.020;2023-02-28T03:37:52;7.23;;;3.50;;
15002;SDS011;7597;53.590;10.020;2023-02-28T03:40:17;5.53;;;3.30;;
15002;SDS011;7597;53.590;10.020;2023-02-28T03:42:44;6.97;;;3.63;;
15002;SDS011;7597;53.590;10.020;2023-02-28T03:45:11;6.00;;;3.47;;
15002;SDS011;7597;53.590;10.020;2023-02-28T03:47:39;5.47;;;3.37;;
15002;SDS011;7597;53.590;10.020;2023-02-28T03:50:08;5.23;;;3.70;;
15002;SDS011;7597;53.590;10.020;2023-02-28T03:52:39;7.60;;;3.67;;
15002;SDS011;7597;53.590;10.020;2023-02-28T03:55:06;5.87;;;3.40;;
15002;SDS011;7597;53.590;10.020;2023-02-28T03:57:36;4.60;;;3.10;;
15002;SDS011;7597;53.590;10.020;2023-02-28T04:00:03;6.13;;;3.83;;
15002;SDS011;7597;53.590;10.020;2023-02-28T04:02:28;4.23;;;3.50;;
15002;SDS011;7597;53.590;10.020;2023-02-28T04:04:54;10.23;;;3.70;;
15002;SDS011;7597;53.590;10.020;2023-02-28T04:07:21;6.40;;;4.00;;
15002;SDS011;7597;53.590;10.020;2023-02-28T04:09:48;7.63;;;3.60;;
15002;SDS011;7597;53.590;10.020;2023-02-28T04:12:14;8.57;;;3.60;;
15002;SDS011;7597;53.590;10.020;2023-02-28T04:14:41;4.93;;;3.70;;
15002;SDS011;7597;53.590;10.020;2023-02-28T04:17:07;5.57;;;4.00;;
15002;SDS011;7597;53.590;10.020;2023-02-28T04:19:34;6.33;;;4.50;;
15002;SDS011;7597;53.590;10.020;2023-02-28T04:22:01;6.67;;;4.50;;
15002;SDS011;7597;53.590;10.020;2023-02-28T04:24:27;6.77;;;4.37;;
15002;SDS011;7597;53.590;10.020;2023-02-28T04:26:55;7.40;;;4.10;;
15002;SDS011;7597;53.590;10.020;2023-02-28T04:29:24;8.33;;;3.70;;
15002;SDS011;7597;53.590;10.020;2023-02-28T04:31:51;4.80;;;4.23;;
15002;SDS011;7597;53.590;10.020;2023-02-28T04:34:20;5.50;;;3.90;;
15002;SDS011;7597;53.590;10.020;2023-02-28T04:36:47;5.27;;;4.00;;
15002;SDS011;7597;53.590;10.020;2023-02-28T04:39:16;6.13;;;4.20;;
15002;SDS011;7597;53.590;10.020;2023-02-28T04:41:44;5.80;;;4.60;;
15002;SDS011;7597;53.590;10.020;2023-02-28T04:44:10;8.00;;;4.90;;
15002;SDS011;7597;53.590;10.020;2023-02-28T04:46:38;7.17;;;4.70;;
15002;SDS011;7597;53.590;10.020;2023-02-28T04:49:04;7.73;;;4.87;;
15002;SDS011;7597;53.590;10.020;2023-02-28T04:51:31;6.40;;;4.50;;
15002;SDS011;7597;53.590;10.020;2023-02-28T04:53:57;6.70;;;4.20;;
15002;SDS011;7597;53.590;10.020;2023-02-28T04:56:24;8.40;;;4.33;;
15002;SDS011;7597;53.590;10.020;2023-02-28T04:58:51;7.10;;;4.83;;
15002;SDS011;7597;53.590;10.020;2023-02-28T05:01:19;9.40;;;4.80;;
15002;SDS011;7597;53.590;10.020;2023-02-28T05:03:47;6.87;;;4.30;;
15002;SDS011;7597;53.590;10.020;2023-02-28T05:06:13;7.20;;;4.33;;
15002;SDS011;7597;53.590;10.020;2023-02-28T05:08:40;7.80;;;4.67;;
15002;SDS011;7597;53.590;10.020;2023-02-28T05:11:12;8.87;;;5.17;;
15002;SDS011;7597;53.590;10.020;2023-02-28T05:13:35;7.97;;;4.40;;
15002;SDS011;7597;53.590;10.020;2023-02-28T05:16:01;8.97;;;5.03;;
15002;SDS011;7597;53.590;10.020;2023-02-28T05:18:28;5.87;;;4.27;;
15002;SDS011;7597;53.590;10.020;2023-02-28T05:20:55;8.97;;;5.77;;
15002;SDS011;7597;53.590;10.020;2023-02-28T05:23:21;7.57;;;5.43;;
15002;SDS011;7597;53.590;10.020;2023-02-28T05:25:48;6.43;;;5.20;;
15002;SDS011;7597;53.590;10.020;2023-02-28T05:28:15;7.20;;;5.33;;
15002;SDS011;7597;53.590;10.020;2023-02-28T05:30:41;10.43;;;5.30;;
15002;SDS011;7597;53.590;10.020;2023-02-28T05:33:10;8.47;;;5.57;;
15002;SDS011;7597;53.590;10.020;2023-02-28T05:35:37;8.40;;;5.27;;
15002;SDS011;7597;53.590;10.020;2023-02-28T05:38:03;8.60;;;5.50;;
15002;SDS011;7597;53.590;10.020;2023-02-28T05:40:30;9.07;;;4.83;;
15002;SDS011;7597;53.590;10.020;2023-02-28T05:42:56;8.00;;;4.77;;
15002;SDS011;7597;53.590;10.020;2023-02-28T05:45:23;10.40;;;5.43;;
15002;SDS011;7597;53.590;10.020;2023-02-28T05:47:53;9.57;;;5.50;;
15002;SDS011;7597;53.590;10.020;2023-02-28T05:50:23;8.57;;;5.60;;
15002;SDS011;7597;53.590;10.020;2023-02-28T05:52:52;7.40;;;5.43;;
15002;SDS011;7597;53.590;10.020;2023-02-28T05:55:17;9.23;;;5.60;;
15002;SDS011;7597;53.590;10.020;2023-02-28T05:57:44;12.77;;;6.03;;
15002;SDS011;7597;53.590;10.020;2023-02-28T06:00:11;9.47;;;5.40;;
15002;SDS011;7597;53.590;10.020;2023-02-28T06:02:39;9.87;;;5.63;;
15002;SDS011;7597;53.590;10.020;2023-02-28T06:05:09;9.17;;;5.63;;
15002;SDS011;7597;53.590;10.020;2023-02-28T06:07:34;10.90;;;5.80;;
15002;SDS011;7597;53.590;10.020;2023-02-28T06:10:01;8.73;;;5.60;;
15002;SDS011;7597;53.590;10.020;2023-02-28T06:12:27;9.27;;;5.50;;
15002;SDS011;7597;53.590;10.020;2023-02-28T06:14:54;11.30;;;5.90;;
15002;SDS011;7597;53.590;10.020;2023-02-28T06:17:21;7.63;;;5.57;;
15002;SDS011;7597;53.590;10.020;2023-02-28T06:19:47;9.60;;;5.63;;
15002;SDS011;7597;53.590;10.020;2023-02-28T06:22:14;9.90;;;5.60;;
15002;SDS011;7597;53.590;10.020;2023-02-28T06:24:41;9.70;;;6.03;;
15002;SDS011;7597;53.590;10.020;2023-02-28T06:27:07;7.33;;;5.43;;
15002;SDS011;7597;53.590;10.020;2023-02-28T06:29:34;13.83;;;6.30;;
15002;SDS011;7597;53.590;10.020;2023-02-28T06:32:02;12.30;;;6.57;;
15002;SDS011;7597;53.590;10.020;2023-02-28T06:34:29;11.60;;;6.40;;
15002;SDS011;7597;53.590;10.020;2023-02-28T06:36:55;10.60;;;6.43;;
15002;SDS011;7597;53.590;10.020;2023-02-28T06:39:24;9.57;;;6.03;;
15002;SDS011;7597;53.590;10.020;2023-02-28T06:41:50;12.43;;;7.10;;
15002;SDS011;7597;53.590;10.020;2023-02-28T06:44:17;9.70;;;6.73;;
15002;SDS011;7597;53.590;10.020;2023-02-28T06:46:44;8.03;;;5.67;;
15002;SDS011;7597;53.590;10.020;2023-02-28T06:49:12;7.97;;;6.33;;
15002;SDS011;7597;53.590;10.020;2023-02-28T06:51:39;8.53;;;5.57;;
15002;SDS011;7597;53.590;10.020;2023-02-28T06:54:05;7.67;;;5.50;;
15002;SDS011;7597;53.590;10.020;2023-02-28T06:56:32;8.70;;;5.83;;
15002;SDS011;7597;53.590;10.020;2023-02-28T06:58:59;7.97;;;5.67;;
15002;SDS011;7597;53.590;10.020;2023-02-28T07:01:26;8.35;;;5.95;;
15002;SDS011;7597;53.590;10.020;2023-02-28T07:03:53;10.70;;;6.00;;
15002;SDS011;7597;53.590;10.020;2023-02-28T07:06:21;9.02;;;5.45;;
15002;SDS011;7597;53.590;10.020;2023-02-28T07:08:48;7.72;;;5.18;;
15002;SDS011;7597;53.590;10.020;2023-02-28T07:11:14;7.03;;;5.18;;
15002;SDS011;7597;53.590;10.020;2023-02-28T07:13:41;10.15;;;6.00;;
15002;SDS011;7597;53.590;10.020;2023-02-28T07:16:09;9.70;;;6.40;;
15002;SDS011;7597;53.590;10.020;2023-02-28T07:18:35;10.25;;;6.35;;
15002;SDS011;7597;53.590;10.020;2023-02-28T07:21:02;10.48;;;6.25;;
15002;SDS011;7597;53.590;10.020;2023-02-28T07:23:29;11.82;;;6.78;;
15002;SDS011;7597;53.590;10.020;2023-02-28T07:25:56;7.00;;;5.68;;
15002;SDS011;7597;53.590;10.020;2023-02-28T07:28:23;10.68;;;6.75;;
15002;SDS011;7597;53.590;10.020;2023-02-28T07:30:50;9.80;;;5.78;;
15002;SDS011;7597;53.590;10.020;2023-02-28T07:33:17;9.57;;;5.85;;
15002;SDS011;7597;53.590;10.020;2023-02-28T07:35:43;14.80;;;8.07;;
15002;SDS011;7597;53.590;10.020;2023-02-28T07:38:10;16.25;;;11.23;;
15002;SDS011;7597;53.590;10.020;2023-02-28T07:40:37;11.88;;;6.80;;
15002;SDS011;7597;53.590;10.020;2023-02-28T07:43:04;12.25;;;8.18;;
15002;SDS011;7597;53.590;10.020;2023-02-28T07:45:31;16.50;;;9.18;;
15002;SDS011;7597;53.590;10.020;2023-02-28T07:47:58;9.93;;;6.32;;
15002;SDS011;7597;53.590;10.020;2023-02-28T07:50:24;13.05;;;7.03;;
15002;SDS011;7597;53.590;10.020;2023-02-28T07:52:51;9.73;;;6.65;;
15002;SDS011;7597;53.590;10.020;2023-02-28T07:55:18;13.00;;;8.70;;
15002;SDS011;7597;53.590;10.020;2023-02-28T07:57:44;11.27;;;6.75;;
15002;SDS011;7597;53.590;10.020;2023-02-28T08:00:11;10.05;;;6.47;;
15002;SDS011;7597;53.590;10.020;2023-02-28T08:02:41;13.57;;;7.57;;
15002;SDS011;7597;53.590;10.020;2023-02-28T08:05:09;10.18;;;6.62;;
15002;SDS011;7597;53.590;10.020;2023-02-28T08:07:39;11.32;;;6.85;;
15002;SDS011;7597;53.590;10.020;2023-02-28T08:10:06;16.15;;;11.00;;
15002;SDS011;7597;53.590;10.020;2023-02-28T08:12:36;23.30;;;18.05;;
15002;SDS011;7597;53.590;10.020;2023-02-28T08:15:07;10.18;;;6.87;;
15002;SDS011;7597;53.590;10.020;2023-02-28T08:17:34;9.82;;;6.87;;
15002;SDS011;7597;53.590;10.020;2023-02-28T08:20:02;9.55;;;6.50;;
15002;SDS011;7597;53.590;10.020;2023-02-28T08:22:29;12.35;;;6.22;;
15002;SDS011;7597;53.590;10.020;2023-02-28T08:24:55;8.75;;;6.40;;
15002;SDS011;7597;53.590;10.020;2023-02-28T08:27:22;8.15;;;6.07;;
15002;SDS011;7597;53.590;10.020;2023-02-28T08:29:50;8.70;;;6.03;;
15002;SDS011;7597;53.590;10.020;2023-02-28T08:32:17;10.88;;;6.50;;
15002;SDS011;7597;53.590;10.020;2023-02-28T09:22:02;6.03;;;3.87;;
15002;SDS011;7597;53.590;10.020;2023-02-28T09:24:32;4.87;;;2.00;;
15002;SDS011;7597;53.590;10.020;2023-02-28T09:26:59;5.05;;;2.72;;
15002;SDS011;7597;53.590;10.020;2023-02-28T09:29:26;3.83;;;3.50;;
15002;SDS011;7597;53.590;10.020;2023-02-28T09:31:52;1.90;;;1.70;;
15002;SDS011;7597;53.590;10.020;2023-02-28T09:34:19;1.95;;;1.75;;
15002;SDS011;7597;53.590;10.020;2023-02-28T09:36:46;2.53;;;1.65;;
15002;SDS011;7597;53.590;10.020;2023-02-28T09:39:12;4.03;;;2.15;;
15002;SDS011;7597;53.590;10.020;2023-02-28T09:41:42;2.50;;;1.90;;
15002;SDS011;7597;53.590;10.020;2023-02-28T13:36:29;3.22;;;2.70;;
15002;SDS011;7597;53.590;10.020;2023-02-28T13:41:52;3.20;;;2.60;;
15002;SDS011;7597;53.590;10.020;2023-02-28T13:44:20;3.03;;;2.42;;
15002;SDS011;7597;53.590;10.020;2023-02-28T13:49:43;3.78;;;2.70;;
15002;SDS011;7597;53.590;10.020;2023-02-28T13:52:12;9.10;;;4.25;;
15002;SDS011;7597;53.590;10.020;2023-02-28T13:54:44;7.53;;;4.87;;
15002;SDS011;7597;53.590;10.020;2023-02-28T13:58:24;6.07;;;2.65;;
15002;SDS011;7597;53.590;10.020;2023-02-28T14:00:02;3.22;;;2.40;;
15002;SDS011;7597;53.590;10.020;2023-02-28T14:02:41;4.30;;;2.50;;
15002;SDS011;7597;53.590;10.020;2023-02-28T14:05:20;3.70;;;2.50;;
15002;SDS011;7597;53.590;10.020;2023-02-28T14:07:49;4.00;;;2.83;;
15002;SDS011;7597;53.590;10.020;2023-02-28T14:10:21;5.32;;;2.40;;
15002;SDS011;7597;53.590;10.020;2023-02-28T14:15:27;4.22;;;2.50;;
15002;SDS011;7597;53.590;10.020;2023-02-28T14:20:47;3.35;;;3.00;;
15002;SDS011;7597;53.590;10.020;2023-02-28T14:23:16;4.05;;;2.35;;
15002;SDS011;7597;53.590;10.020;2023-02-28T14:25:55;5.50;;;2.50;;
15002;SDS011;7597;53.590;10.020;2023-02-28T14:28:39;4.05;;;2.83;;
15002;SDS011;7597;53.590;10.020;2023-02-28T14:31:24;6.65;;;2.75;;
15002;SDS011;7597;53.590;10.020;2023-02-28T14:34:02;4.05;;;2.70;;
15002;SDS011;7597;53.590;10.020;2023-02-28T14:36:34;4.65;;;3.15;;
15002;SDS011;7597;53.590;10.020;2023-02-28T14:39:06;5.20;;;3.62;;
15002;SDS011;7597;53.590;10.020;2023-02-28T14:41:34;4.30;;;2.62;;
15002;SDS011;7597;53.590;10.020;2023-02-28T14:44:01;3.67;;;2.30;;
15002;SDS011;7597;53.590;10.020;2023-02-28T14:46:30;6.65;;;3.28;;
15002;SDS011;7597;53.590;10.020;2023-02-28T14:48:55;5.78;;;3.22;;
15002;SDS011;7597;53.590;10.020;2023-02-28T14:51:22;6.40;;;2.67;;
15002;SDS011;7597;53.590;10.020;2023-02-28T14:53:49;5.85;;;2.70;;
15002;SDS011;7597;53.590;10.020;2023-02-28T14:56:22;5.15;;;2.60;;
15002;SDS011;7597;53.590;10.020;2023-02-28T14:58:51;4.45;;;2.72;;
15002;SDS011;7597;53.590;10.020;2023-02-28T15:01:18;4.10;;;2.75;;
15002;SDS011;7597;53.590;10.020;2023-02-28T15:03:44;5.00;;;2.60;;
15002;SDS011;7597;53.590;10.020;2023-02-28T15:06:13;3.62;;;2.15;;
15002;SDS011;7597;53.590;10.020;2023-02-28T15:08:40;3.47;;;2.08;;
15002;SDS011;7597;53.590;10.020;2023-02-28T15:11:07;3.87;;;2.95;;
15002;SDS011;7597;53.590;10.020;2023-02-28T15:13:36;4.82;;;2.72;;
15002;SDS011;7597;53.590;10.020;2023-02-28T15:16:13;4.32;;;2.12;;
15002;SDS011;7597;53.590;10.020;2023-02-28T15:18:59;3.72;;;2.47;;
15002;SDS011;7597;53.590;10.020;2023-02-28T15:21:31;3.53;;;2.00;;
15002;SDS011;7597;53.590;10.020;2023-02-28T15:26:46;2.45;;;2.08;;
15002;SDS011;7597;53.590;10.020;2023-02-28T15:29:12;4.65;;;2.60;;
15002;SDS011;7597;53.590;10.020;2023-02-28T15:31:41;4.72;;;2.80;;
15002;SDS011;7597;53.590;10.020;2023-02-28T15:34:13;4.12;;;2.58;;
15002;SDS011;7597;53.590;10.020;2023-02-28T15:36:34;3.15;;;2.10;;
15002;SDS011;7597;53.590;10.020;2023-02-28T15:39:00;3.47;;;2.12;;
15002;SDS011;7597;53.590;10.020;2023-02-28T15:41:29;3.90;;;2.03;;
15002;SDS011;7597;53.590;10.020;2023-02-28T15:46:34;2.45;;;2.10;;
15002;SDS011;7597;53.590;10.020;2023-02-28T15:49:00;4.68;;;2.33;;
15002;SDS011;7597;53.590;10.020;2023-02-28T15:51:32;2.85;;;2.30;;
15002;SDS011;7597;53.590;10.020;2023-02-28T15:54:05;2.60;;;2.12;;
15002;SDS011;7597;53.590;10.020;2023-02-28T15:56:31;17.98;;;11.88;;
15002;SDS011;7597;53.590;10.020;2023-02-28T15:59:04;7.82;;;5.60;;
15002;SDS011;7597;53.590;10.020;2023-02-28T16:01:36;2.72;;;2.35;;
15002;SDS011;7597;53.590;10.020;2023-02-28T16:04:04;4.15;;;2.30;;
15002;SDS011;7597;53.590;10.020;2023-02-28T16:06:37;3.87;;;2.40;;
15002;SDS011;7597;53.590;10.020;2023-02-28T16:09:09;4.30;;;2.22;;
15002;SDS011;7597;53.590;10.020;2023-02-28T16:11:37;4.18;;;1.98;;
15002;SDS011;7597;53.590;10.020;2023-02-28T16:14:10;3.40;;;1.90;;
15002;SDS011;7597;53.590;10.020;2023-02-28T16:16:41;2.50;;;2.28;;
15002;SDS011;7597;53.590;10.020;2023-02-28T16:19:11;4.07;;;2.20;;
15002;SDS011;7597;53.590;10.020;2023-02-28T16:21:38;2.63;;;2.00;;
15002;SDS011;7597;53.590;10.020;2023-02-28T16:24:05;5.75;;;2.00;;
15002;SDS011;7597;53.590;10.020;2023-02-28T16:26:32;4.17;;;2.20;;
15002;SDS011;7597;53.590;10.020;2023-02-28T16:28:58;3.50;;;2.00;;
15002;SDS011;7597;53.590;10.020;2023-02-28T16:31:26;3.17;;;2.30;;
15002;SDS011;7597;53.590;10.020;2023-02-28T16:33:52;3.60;;;2.20;;
15002;SDS011;7597;53.590;10.020;2023-02-28T16:36:20;3.50;;;2.00;;
15002;SDS011;7597;53.590;10.020;2023-02-28T16:38:46;3.33;;;2.20;;
15002;SDS011;7597;53.590;10.020;2023-02-28T16:41:14;2.40;;;2.13;;
15002;SDS011;7597;53.590;10.020;2023-02-28T16:43:39;2.93;;;2.03;;
15002;SDS011;7597;53.590;10.020;2023-02-28T16:46:08;3.87;;;2.10;;
15002;SDS011;7597;53.590;10.020;2023-02-28T16:48:33;3.63;;;2.63;;
15002;SDS011;7597;53.590;10.020;2023-02-28T16:50:59;2.40;;;1.93;;
15002;SDS011;7597;53.590;10.020;2023-02-28T16:53:27;3.13;;;2.30;;
15002;SDS011;7597;53.590;10.020;2023-02-28T16:55:54;8.07;;;4.97;;
15002;SDS011;7597;53.590;10.020;2023-02-28T16:58:22;5.37;;;2.10;;
15002;SDS011;7597;53.590;10.020;2023-02-28T17:00:49;5.77;;;3.20;;
15002;SDS011;7597;53.590;10.020;2023-02-28T17:03:19;3.03;;;2.03;;
15002;SDS011;7597;53.590;10.020;2023-02-28T17:05:48;3.57;;;2.17;;
15002;SDS011;7597;53.590;10.020;2023-02-28T17:08:15;6.77;;;3.03;;
15002;SDS011;7597;53.590;10.020;2023-02-28T17:10:42;3.40;;;2.40;;
15002;SDS011;7597;53.590;10.020;2023-02-28T17:13:09;4.50;;;3.13;;
15002;SDS011;7597;53.590;10.020;2023-02-28T17:15:36;4.30;;;2.40;;
15002;SDS011;7597;53.590;10.020;2023-02-28T17:18:04;4.13;;;2.73;;
15002;SDS011;7597;53.590;10.020;2023-02-28T17:20:31;2.80;;;2.30;;
15002;SDS011;7597;53.590;10.020;2023-02-28T17:23:03;3.30;;;2.33;;
15002;SDS011;7597;53.590;10.020;2023-02-28T17:25:31;4.63;;;2.30;;
15002;SDS011;7597;53.590;10.020;2023-02-28T17:27:58;4.17;;;2.40;;
15002;SDS011;7597;53.590;10.020;2023-02-28T17:30:26;3.97;;;2.47;;
15002;SDS011;7597;53.590;10.020;2023-02-28T17:33:09;3.47;;;2.23;;
15002;SDS011;7597;53.590;10.020;2023-02-28T17:35:36;4.63;;;2.50;;
15002;SDS011;7597;53.590;10.020;2023-02-28T17:38:03;3.80;;;2.17;;
15002;SDS011;7597;53.590;10.020;2023-02-28T17:40:31;2.97;;;2.50;;
15002;SDS011;7597;53.590;10.020;2023-02-28T17:43:00;3.60;;;2.40;;
15002;SDS011;7597;53.590;10.020;2023-02-28T17:45:28;4.40;;;2.67;;
15002;SDS011;7597;53.590;10.020;2023-02-28T17:47:55;4.33;;;2.83;;
15002;SDS011;7597;53.590;10.020;2023-02-28T18:16:48;3.53;;;2.77;;
15002;SDS011;7597;53.590;10.020;2023-02-28T18:19:18;6.27;;;2.90;;
15002;SDS011;7597;53.590;10.020;2023-02-28T18:21:46;5.30;;;3.53;;
15002;SDS011;7597;53.590;10.020;2023-02-28T18:24:12;3.93;;;2.83;;
15002;SDS011;7597;53.590;10.020;2023-02-28T18:26:41;5.57;;;3.20;;
15002;SDS011;7597;53.590;10.020;2023-02-28T18:29:18;5.53;;;3.10;;
15002;SDS011;7597;53.590;10.020;2023-02-28T18:31:45;4.50;;;2.70;;
15002;SDS011;7597;53.590;10.020;2023-02-28T18:34:12;4.13;;;2.93;;
15002;SDS011;7597;53.590;10.020;2023-02-28T18:36:38;4.90;;;3.23;;
15002;SDS011;7597;53.590;10.020;2023-02-28T18:39:05;4.40;;;3.37;;
15002;SDS011;7597;53.590;10.020;2023-02-28T18:41:33;4.97;;;3.30;;
15002;SDS011;7597;53.590;10.020;2023-02-28T18:44:01;6.00;;;3.60;;
15002;SDS011;7597;53.590;10.020;2023-02-28T18:46:28;5.73;;;3.47;;
15002;SDS011;7597;53.590;10.020;2023-02-28T18:48:55;6.77;;;4.10;;
15002;SDS011;7597;53.590;10.020;2023-02-28T18:51:23;7.53;;;4.10;;
15002;SDS011;7597;53.590;10.020;2023-02-28T18:53:50;7.97;;;4.13;;
15002;SDS011;7597;53.590;10.020;2023-02-28T18:56:17;4.33;;;3.70;;
15002;SDS011;7597;53.590;10.020;2023-02-28T18:58:44;7.77;;;4.90;;
15002;SDS011;7597;53.590;10.020;2023-02-28T19:01:13;7.00;;;4.60;;
15002;SDS011;7597;53.590;10.020;2023-02-28T19:03:42;6.60;;;4.73;;
15002;SDS011;7597;53.590;10.020;2023-02-28T19:06:09;8.90;;;5.47;;
15002;SDS011;7597;53.590;10.020;2023-02-28T19:08:35;9.77;;;5.73;;
15002;SDS011;7597;53.590;10.020;2023-02-28T19:11:07;6.57;;;4.53;;
15002;SDS011;7597;53.590;10.020;2023-02-28T19:13:33;6.60;;;4.70;;
15002;SDS011;7597;53.590;10.020;2023-02-28T19:16:01;9.07;;;4.47;;
15002;SDS011;7597;53.590;10.020;2023-02-28T19:18:28;10.53;;;5.73;;
15002;SDS011;7597;53.590;10.020;2023-02-28T19:20:57;12.53;;;6.27;;
15002;SDS011;7597;53.590;10.020;2023-02-28T19:23:23;10.93;;;6.23;;
15002;SDS011;7597;53.590;10.020;2023-02-28T19:25:52;5.77;;;3.83;;
15002;SDS011;7597;53.590;10.020;2023-02-28T19:28:19;7.73;;;4.23;;
15002;SDS011;7597;53.590;10.020;2023-02-28T19:30:48;6.07;;;4.10;;
15002;SDS011;7597;53.590;10.020;2023-02-28T19:33:16;9.70;;;4.33;;
15002;SDS011;7597;53.590;10.020;2023-02-28T19:35:46;8.83;;;6.57;;
15002;SDS011;7597;53.590;10.020;2023-02-28T19:38:17;15.77;;;6.63;;
15002;SDS011;7597;53.590;10.020;2023-02-28T19:40:44;9.20;;;5.53;;
15002;SDS011;7597;53.590;10.020;2023-02-28T19:43:11;11.10;;;6.83;;
15002;SDS011;7597;53.590;10.020;2023-02-28T19:45:38;8.87;;;5.57;;
15002;SDS011;7597;53.590;10.020;2023-02-28T19:48:05;8.33;;;5.80;;
15002;SDS011;7597;53.590;10.020;2023-02-28T19:50:34;7.30;;;5.07;;
15002;SDS011;7597;53.590;10.020;2023-02-28T19:53:01;7.43;;;4.83;;
15002;SDS011;7597;53.590;10.020;2023-02-28T19:55:29;8.60;;;4.60;;
15002;SDS011;7597;53.590;10.020;2023-02-28T19:57:59;9.67;;;6.93;;
15002;SDS011;7597;53.590;10.020;2023-02-28T20:00:27;12.63;;;7.83;;
15002;SDS011;7597;53.590;10.020;2023-02-28T20:03:01;10.27;;;6.47;;
15002;SDS011;7597;53.590;10.020;2023-02-28T20:05:31;11.67;;;6.13;;
15002;SDS011;7597;53.590;10.020;2023-02-28T20:08:00;10.43;;;5.60;;
15002;SDS011;7597;53.590;10.020;2023-02-28T20:10:28;6.90;;;4.83;;
15002;SDS011;7597;53.590;10.020;2023-02-28T20:12:57;7.27;;;4.37;;
15002;SDS011;7597;53.590;10.020;2023-02-28T20:15:23;7.70;;;4.20;;
15002;SDS011;7597;53.590;10.020;2023-02-28T20:17:50;9.03;;;6.13;;